Knife Lake, Minnesota
Current Conditions -  °F | °C
As of 7:25 AM on Friday 19 Dec 2014 (Local Time) from KJMR Reporting Station
Overcast Overcast  
Wind Chill: 19°   Ceiling: 700
Heat Index: 19°   Visibility: 5mi
Dew Point: 16°   Wind: 3mph
Humidity: 86%   Direction: 150°SSE
Pressure: 30.24"   Gusts: NA
Location:  45.9652°N, 93.2874°W
Report Text: KJMR 191325Z AUTO 15003KT 5SM BKN007 OVC029 M07/M09 A3024 RMK AO2
Loading
Personal Weather Stations






























Interactive Weather Map New forecast layout! Learn more

10-Day Weather Forecast

Advertisements
Track Severe Weather on mobile